createdAt,value
2023-04-03T00:00:34.256Z,-0.38
2023-04-03T00:03:01.360Z,-0.43
2023-04-03T00:05:28.000Z,-0.43
2023-04-03T00:07:54.706Z,-0.46
2023-04-03T00:10:21.261Z,-0.45
2023-04-03T00:12:47.807Z,-0.47
2023-04-03T00:15:14.565Z,-0.52
2023-04-03T00:17:41.136Z,-0.51
2023-04-03T00:20:08.288Z,-0.49
2023-04-03T00:22:34.895Z,-0.54
2023-04-03T00:25:01.566Z,-0.59
2023-04-03T00:27:28.210Z,-0.57
2023-04-03T00:29:54.783Z,-0.58
2023-04-03T00:32:21.350Z,-0.58
2023-04-03T00:34:47.876Z,-0.64
2023-04-03T00:37:14.422Z,-0.67
2023-04-03T00:39:41.072Z,-0.70
2023-04-03T00:42:07.860Z,-0.74
2023-04-03T00:44:34.362Z,-0.74
2023-04-03T00:47:01.938Z,-0.80
2023-04-03T00:49:29.381Z,-0.79
2023-04-03T00:51:57.513Z,-0.84
2023-04-03T00:54:24.206Z,-0.87
2023-04-03T00:56:53.422Z,-0.94
2023-04-03T00:59:28.099Z,-0.97
2023-04-03T01:01:58.372Z,-0.93
2023-04-03T01:04:37.895Z,-0.93
2023-04-03T01:07:11.330Z,-1.01
2023-04-03T01:09:39.620Z,-1.08
2023-04-03T01:12:25.918Z,-1.05
2023-04-03T01:15:01.983Z,-1.03
2023-04-03T01:17:33.675Z,-1.08
2023-04-03T01:20:12.702Z,-1.12
2023-04-03T01:22:51.401Z,-1.18
2023-04-03T01:25:18.150Z,-1.24
2023-04-03T01:27:44.740Z,-1.25
2023-04-03T01:30:12.073Z,-1.25
2023-04-03T01:32:38.667Z,-1.23
2023-04-03T01:35:08.204Z,-1.28
2023-04-03T01:37:34.759Z,-1.28
2023-04-03T01:40:01.348Z,-1.30
2023-04-03T01:42:27.943Z,-1.33
2023-04-03T01:44:54.477Z,-1.35
2023-04-03T01:47:21.062Z,-1.34
2023-04-03T01:49:47.615Z,-1.37
2023-04-03T01:52:14.229Z,-1.42
2023-04-03T01:54:40.797Z,-1.40
2023-04-03T01:57:07.487Z,-1.44
2023-04-03T01:59:34.066Z,-1.46
2023-04-03T02:02:00.816Z,-1.45
2023-04-03T02:04:27.352Z,-1.41
2023-04-03T02:06:53.983Z,-1.44
2023-04-03T02:09:20.568Z,-1.45
2023-04-03T02:11:47.135Z,-1.49
2023-04-03T02:14:13.793Z,-1.51
2023-04-03T02:16:42.041Z,-1.51
2023-04-03T02:19:08.701Z,-1.53
2023-04-03T02:21:35.252Z,-1.54
2023-04-03T02:24:01.936Z,-1.51
2023-04-03T02:26:28.479Z,-1.49
2023-04-03T02:28:55.176Z,-1.48
2023-04-03T02:31:21.990Z,-1.43
2023-04-03T02:33:48.669Z,-1.44
2023-04-03T02:36:15.290Z,-1.49
2023-04-03T02:38:41.862Z,-1.54
2023-04-03T02:41:11.335Z,-1.55
2023-04-03T02:43:38.505Z,-1.56
2023-04-03T02:46:05.949Z,-1.56
2023-04-03T02:48:32.653Z,-1.60
2023-04-03T02:50:59.269Z,-1.63
2023-04-03T02:53:25.996Z,-1.68
2023-04-03T02:55:52.516Z,-1.69
2023-04-03T02:58:19.152Z,-1.72
2023-04-03T03:00:45.906Z,-1.75
2023-04-03T03:03:12.525Z,-1.74
2023-04-03T03:05:39.584Z,-1.78
2023-04-03T03:08:06.379Z,-1.78
2023-04-03T03:10:32.942Z,-1.81
2023-04-03T03:12:59.600Z,-1.80
2023-04-03T03:15:26.175Z,-1.84
2023-04-03T03:17:52.748Z,-1.87
2023-04-03T03:20:19.321Z,-1.88
2023-04-03T03:22:45.877Z,-1.90
2023-04-03T03:25:12.417Z,-1.90
2023-04-03T03:27:39.456Z,-1.90
2023-04-03T03:30:06.703Z,-1.96
2023-04-03T03:32:33.241Z,-2.01
2023-04-03T03:34:59.878Z,-2.02
2023-04-03T03:37:26.517Z,-2.02
2023-04-03T03:39:53.113Z,-2.07
2023-04-03T03:42:19.707Z,-2.07
2023-04-03T03:44:46.426Z,-2.07
2023-04-03T03:47:13.060Z,-2.06
2023-04-03T03:49:39.620Z,-2.07
2023-04-03T03:52:06.242Z,-2.03
2023-04-03T03:54:32.918Z,-2.03
2023-04-03T03:56:59.517Z,-2.04
2023-04-03T03:59:26.118Z,-2.04
2023-04-03T04:01:52.710Z,-2.02
2023-04-03T04:04:19.446Z,-2.03
2023-04-03T04:06:46.356Z,-2.01
2023-04-03T04:09:13.351Z,-2.01
2023-04-03T04:11:41.336Z,-2.02
2023-04-03T04:14:08.394Z,-2.00
2023-04-03T04:16:34.975Z,-2.01
2023-04-03T04:19:01.517Z,-2.00
2023-04-03T04:21:28.065Z,-1.97
2023-04-03T04:23:54.636Z,-1.94
2023-04-03T04:26:21.459Z,-1.94
2023-04-03T04:28:47.997Z,-1.96
2023-04-03T04:31:14.760Z,-1.99
2023-04-03T04:33:41.894Z,-1.91
2023-04-03T04:36:08.679Z,-1.93
2023-04-03T04:38:35.288Z,-1.88
2023-04-03T04:41:01.957Z,-1.85
2023-04-03T04:43:28.533Z,-1.80
2023-04-03T04:46:06.052Z,-1.74
2023-04-03T04:48:32.950Z,-1.65
2023-04-03T04:50:59.827Z,-1.56
2023-04-03T04:53:26.724Z,-1.41
2023-04-03T04:55:54.024Z,-1.32
2023-04-03T04:58:21.208Z,-1.15
2023-04-03T05:00:48.145Z,-1.11
2023-04-03T05:03:15.454Z,-1.03
2023-04-03T05:05:41.984Z,-0.88
2023-04-03T05:08:09.365Z,-0.78
2023-04-03T05:10:36.127Z,-0.64
2023-04-03T05:13:02.838Z,-0.49
2023-04-03T05:15:29.416Z,-0.41
2023-04-03T05:17:56.052Z,-0.35
2023-04-03T05:20:22.673Z,-0.26
2023-04-03T05:22:49.236Z,-0.23
2023-04-03T05:25:16.057Z,-0.26
2023-04-03T05:27:42.892Z,-0.19
2023-04-03T05:30:10.356Z,0.06
2023-04-03T05:32:37.008Z,0.21
2023-04-03T05:35:03.824Z,0.37
2023-04-03T05:37:30.502Z,0.54
2023-04-03T05:39:57.139Z,1.03
2023-04-03T05:42:23.990Z,1.28
2023-04-03T05:44:51.230Z,1.46
2023-04-03T05:47:18.767Z,1.84
2023-04-03T05:49:46.374Z,2.08
2023-04-03T05:52:19.409Z,2.25
2023-04-03T05:54:49.021Z,2.63
2023-04-03T05:57:17.150Z,3.01
2023-04-03T05:59:44.840Z,3.23
2023-04-03T06:02:17.123Z,3.55
2023-04-03T06:04:44.168Z,3.81
2023-04-03T06:07:16.876Z,3.60
2023-04-03T06:09:44.096Z,4.01
2023-04-03T06:12:11.477Z,4.21
2023-04-03T06:14:38.304Z,4.35
2023-04-03T06:17:05.506Z,4.45
2023-04-03T06:19:32.082Z,4.15
2023-04-03T06:21:58.732Z,4.21
2023-04-03T06:24:26.199Z,4.54
2023-04-03T06:26:53.780Z,4.37
2023-04-03T06:29:21.607Z,4.58
2023-04-03T06:31:48.406Z,4.67
2023-04-03T06:34:15.017Z,4.65
2023-04-03T06:36:41.698Z,4.47
2023-04-03T06:39:09.476Z,4.27
2023-04-03T06:41:37.233Z,4.57
2023-04-03T06:46:31.395Z,4.90
2023-04-03T06:48:58.265Z,4.93
2023-04-03T06:51:30.116Z,4.28
2023-04-03T06:53:58.814Z,3.98
2023-04-03T06:56:26.347Z,3.57
2023-04-03T06:58:55.710Z,3.30
2023-04-03T07:01:22.456Z,2.90
2023-04-03T07:03:50.175Z,2.11
2023-04-03T07:06:18.721Z,2.01
2023-04-03T07:08:46.677Z,2.05
2023-04-03T07:11:14.095Z,2.00
2023-04-03T07:13:40.947Z,2.05
2023-04-03T07:16:08.591Z,2.24
2023-04-03T07:18:35.710Z,2.37
2023-04-03T07:21:02.654Z,2.38
2023-04-03T07:23:29.238Z,2.64
2023-04-03T07:25:56.186Z,2.61
2023-04-03T07:28:24.210Z,2.70
2023-04-03T07:30:53.180Z,2.66
2023-04-03T07:33:22.349Z,2.56
2023-04-03T07:35:49.562Z,2.72
2023-04-03T07:38:17.142Z,2.78
2023-04-03T07:40:50.920Z,2.69
2023-04-03T07:43:19.374Z,2.66
2023-04-03T07:45:46.169Z,2.52
2023-04-03T07:48:13.934Z,2.63
2023-04-03T07:50:44.015Z,2.91
2023-04-03T07:53:10.904Z,2.85
2023-04-03T07:55:43.844Z,2.98
2023-04-03T07:58:15.906Z,3.06
2023-04-03T08:00:42.618Z,2.93
2023-04-03T08:03:12.751Z,2.80
2023-04-03T08:05:43.998Z,2.97
2023-04-03T08:08:13.039Z,2.79
2023-04-03T08:10:39.784Z,2.61
2023-04-03T08:13:07.583Z,2.71
2023-04-03T08:15:34.769Z,2.42
2023-04-03T08:18:01.989Z,2.36
2023-04-03T08:20:29.216Z,2.23
2023-04-03T08:22:55.845Z,2.29
2023-04-03T08:25:23.553Z,2.25
2023-04-03T08:27:50.140Z,2.23
2023-04-03T08:30:17.172Z,2.28
2023-04-03T08:32:45.080Z,2.24
2023-04-03T08:35:12.274Z,2.10
2023-04-03T08:37:39.855Z,1.98
2023-04-03T08:40:09.888Z,2.00
2023-04-03T08:42:42.856Z,2.28
2023-04-03T08:45:28.488Z,2.72
2023-04-03T08:48:08.347Z,3.11
2023-04-03T08:50:40.585Z,3.35
2023-04-03T08:53:15.606Z,3.63
2023-04-03T08:55:49.174Z,3.70
2023-04-03T08:58:25.536Z,4.18
2023-04-03T09:00:59.964Z,4.51
2023-04-03T09:03:27.194Z,4.47
2023-04-03T09:06:21.481Z,4.01
2023-04-03T09:09:03.125Z,3.87
2023-04-03T09:11:44.928Z,3.12
2023-04-03T09:14:46.857Z,2.95
2023-04-03T09:17:32.428Z,2.80
2023-04-03T09:20:22.414Z,3.02
2023-04-03T09:22:52.750Z,3.32
2023-04-03T09:25:33.708Z,3.52
2023-04-03T09:28:04.664Z,3.63
2023-04-03T09:30:31.594Z,3.57
2023-04-03T09:32:58.994Z,3.62
2023-04-03T09:35:47.178Z,3.78
2023-04-03T09:38:16.753Z,3.88
2023-04-03T09:40:49.478Z,4.19
2023-04-03T09:43:18.960Z,4.23
2023-04-03T09:45:48.342Z,4.09
2023-04-03T09:48:16.600Z,4.22
2023-04-03T09:50:57.536Z,4.21
2023-04-03T09:53:39.483Z,4.30
2023-04-03T09:56:28.108Z,3.94
2023-04-03T09:59:00.615Z,3.78
2023-04-03T10:01:38.756Z,3.65
2023-04-03T10:04:07.198Z,3.82
2023-04-03T10:06:37.002Z,4.27
2023-04-03T10:09:07.422Z,4.38
2023-04-03T10:11:34.986Z,4.62
2023-04-03T10:14:05.928Z,4.65
2023-04-03T10:16:38.292Z,4.62
2023-04-03T10:19:47.119Z,4.02
2023-04-03T10:22:28.889Z,3.73
2023-04-03T10:25:05.558Z,3.83
2023-04-03T10:27:53.768Z,3.87
2023-04-03T10:30:37.754Z,4.19
2023-04-03T10:33:37.223Z,4.17
2023-04-03T10:36:35.849Z,4.41
2023-04-03T10:39:17.344Z,4.52
2023-04-03T10:42:05.747Z,4.99
2023-04-03T10:45:17.157Z,5.11
2023-04-03T10:48:30.604Z,5.48
2023-04-03T10:51:09.038Z,5.53
2023-04-03T10:54:01.507Z,5.73
2023-04-03T10:56:28.227Z,5.73
2023-04-03T10:59:01.905Z,6.03
2023-04-03T11:01:35.857Z,6.36
2023-04-03T11:04:07.089Z,6.48
2023-04-03T11:06:42.159Z,6.61
2023-04-03T11:09:27.384Z,6.25
2023-04-03T11:12:18.379Z,6.41
2023-04-03T11:14:47.849Z,5.78
2023-04-03T11:17:23.803Z,5.89
2023-04-03T11:20:21.072Z,5.81
2023-04-03T11:22:55.689Z,6.05
2023-04-03T11:25:25.191Z,5.66
2023-04-03T11:27:52.756Z,5.83
2023-04-03T11:30:24.062Z,5.58
2023-04-03T11:33:03.213Z,5.99
2023-04-03T11:35:31.348Z,6.64
2023-04-03T11:38:01.427Z,6.84
2023-04-03T11:40:35.220Z,6.69
2023-04-03T11:43:22.438Z,6.07
2023-04-03T11:46:05.488Z,5.50
2023-04-03T11:48:34.627Z,5.56
2023-04-03T11:51:14.049Z,5.11
2023-04-03T11:53:41.945Z,5.18
2023-04-03T11:56:34.734Z,5.33
2023-04-03T11:59:14.496Z,6.11
2023-04-03T12:01:54.385Z,6.20
2023-04-03T12:04:24.096Z,6.64
2023-04-03T12:06:55.898Z,6.72
2023-04-03T12:09:25.737Z,6.71
2023-04-03T12:11:53.000Z,6.40
2023-04-03T12:14:23.632Z,6.17
2023-04-03T12:16:52.281Z,6.02
2023-04-03T12:19:24.312Z,5.90
2023-04-03T12:21:58.472Z,5.70
2023-04-03T12:24:31.106Z,5.32
2023-04-03T12:27:00.545Z,5.10
2023-04-03T12:29:28.990Z,4.95
2023-04-03T12:32:04.974Z,4.94
2023-04-03T12:34:34.322Z,5.50
2023-04-03T12:37:09.818Z,5.64
2023-04-03T12:39:45.510Z,5.87
2023-04-03T12:42:22.818Z,6.20
2023-04-03T12:44:55.409Z,6.23
2023-04-03T12:47:39.019Z,6.60
2023-04-03T12:50:31.145Z,6.38
2023-04-03T12:53:00.772Z,6.06
2023-04-03T12:55:27.549Z,6.29
2023-04-03T12:57:54.110Z,6.10
2023-04-03T13:00:22.859Z,6.39
2023-04-03T13:02:49.864Z,6.35
2023-04-03T13:05:19.552Z,6.53
2023-04-03T13:07:51.081Z,6.32
2023-04-03T13:10:19.403Z,6.07
2023-04-03T13:12:55.691Z,6.26
2023-04-03T13:15:26.720Z,6.18
2023-04-03T13:17:54.792Z,5.70
2023-04-03T13:20:27.111Z,6.10
2023-04-03T13:23:03.555Z,6.32
2023-04-03T13:25:34.736Z,6.15
2023-04-03T13:28:10.564Z,6.35
2023-04-03T13:30:42.307Z,6.24
2023-04-03T13:33:25.042Z,6.36
2023-04-03T13:36:07.983Z,6.15
2023-04-03T13:38:35.151Z,5.82
2023-04-03T13:41:06.353Z,5.71
2023-04-03T13:43:36.486Z,5.39
2023-04-03T13:46:28.016Z,5.49
2023-04-03T13:48:56.858Z,5.67
2023-04-03T13:51:26.807Z,5.84
2023-04-03T13:53:57.366Z,5.89
2023-04-03T13:56:53.207Z,5.66
2023-04-03T13:59:19.695Z,5.82
2023-04-03T14:02:32.020Z,6.01
2023-04-03T14:05:02.566Z,6.05
2023-04-03T14:07:32.111Z,5.70
2023-04-03T14:09:59.449Z,5.67
2023-04-03T14:12:40.092Z,5.59
2023-04-03T14:15:19.426Z,5.63
2023-04-03T14:17:46.573Z,5.49
2023-04-03T14:20:20.852Z,5.49
2023-04-03T14:22:48.070Z,5.50
2023-04-03T14:25:14.706Z,5.41
2023-04-03T14:27:44.420Z,5.39
2023-04-03T14:30:17.714Z,5.36
2023-04-03T14:32:44.979Z,5.39
2023-04-03T14:35:11.719Z,5.53
2023-04-03T14:37:38.562Z,6.09
2023-04-03T14:40:06.836Z,6.27
2023-04-03T14:42:36.776Z,5.93
2023-04-03T14:45:07.258Z,5.51
2023-04-03T14:47:34.963Z,5.18
2023-04-03T14:50:03.805Z,4.90
2023-04-03T14:52:36.757Z,4.59
2023-04-03T14:55:06.765Z,4.60
2023-04-03T14:57:34.503Z,4.91
2023-04-03T15:00:02.396Z,5.34
2023-04-03T15:02:35.415Z,5.65
2023-04-03T15:05:05.142Z,6.03
2023-04-03T15:07:35.540Z,5.97
2023-04-03T15:10:15.420Z,5.77
2023-04-03T15:12:42.862Z,5.55
2023-04-03T15:15:10.293Z,5.33
2023-04-03T15:17:37.545Z,5.30
2023-04-03T15:20:13.333Z,5.02
2023-04-03T15:22:39.929Z,4.71
2023-04-03T15:25:06.827Z,4.55
2023-04-03T15:27:33.393Z,4.43
2023-04-03T15:29:59.935Z,4.40
2023-04-03T15:32:26.534Z,4.45
2023-04-03T15:34:56.019Z,4.57
2023-04-03T15:37:23.512Z,4.85
2023-04-03T15:39:50.334Z,4.96
2023-04-03T15:42:16.932Z,4.96
2023-04-03T15:44:43.536Z,4.93
2023-04-03T15:47:10.321Z,4.97
2023-04-03T15:49:37.594Z,4.78
2023-04-03T15:52:04.793Z,4.76
2023-04-03T15:54:32.369Z,4.62
2023-04-03T15:56:59.110Z,4.50
2023-04-03T15:59:26.090Z,4.58
2023-04-03T16:01:53.747Z,4.52
2023-04-03T16:04:22.006Z,4.58
2023-04-03T16:06:50.026Z,4.61
2023-04-03T16:09:16.909Z,4.61
2023-04-03T16:11:44.489Z,4.44
2023-04-03T16:14:11.484Z,4.41
2023-04-03T16:16:41.026Z,4.37
2023-04-03T16:19:07.909Z,4.39
2023-04-03T16:21:34.961Z,4.28
2023-04-03T16:24:02.480Z,4.20
2023-04-03T16:26:29.611Z,4.23
2023-04-03T16:28:56.256Z,4.12
2023-04-03T16:31:25.044Z,4.21
2023-04-03T16:33:55.473Z,4.13
2023-04-03T16:36:22.206Z,4.06
2023-04-03T16:38:48.791Z,3.92
2023-04-03T16:41:15.572Z,3.86
2023-04-03T16:46:09.881Z,3.65
2023-04-03T16:48:36.625Z,3.53
2023-04-03T16:51:03.269Z,3.50
2023-04-03T16:53:29.973Z,3.47
2023-04-03T16:55:58.875Z,3.43
2023-04-03T16:58:26.293Z,3.41
2023-04-03T17:00:56.673Z,3.38
2023-04-03T17:03:26.651Z,3.36
2023-04-03T17:05:53.468Z,3.38
2023-04-03T17:08:20.151Z,3.39
2023-04-03T17:10:47.931Z,3.33
2023-04-03T17:13:15.638Z,3.36
2023-04-03T17:15:42.685Z,3.39
2023-04-03T17:18:09.688Z,3.36
2023-04-03T17:20:38.721Z,3.31
2023-04-03T17:23:06.643Z,3.31
2023-04-03T17:25:33.454Z,3.30
2023-04-03T17:28:00.022Z,3.27
2023-04-03T17:30:26.710Z,3.27
2023-04-03T17:32:53.353Z,3.26
2023-04-03T17:35:20.068Z,3.30
2023-04-03T17:37:50.045Z,3.26
2023-04-03T17:40:18.663Z,3.28
2023-04-03T17:42:45.639Z,3.34
2023-04-03T17:45:12.333Z,3.26
2023-04-03T17:47:39.197Z,3.20
2023-04-03T17:50:06.790Z,3.18
2023-04-03T17:52:33.877Z,3.20
2023-04-03T17:55:00.517Z,3.18
2023-04-03T17:57:27.130Z,3.18
2023-04-03T17:59:54.415Z,3.14
2023-04-03T18:02:21.199Z,3.11
2023-04-03T18:04:47.912Z,3.17
2023-04-03T18:07:14.654Z,3.15
2023-04-03T18:09:42.188Z,3.15
2023-04-03T18:12:10.112Z,3.19
2023-04-03T18:14:38.731Z,3.18
2023-04-03T18:17:05.981Z,3.16
2023-04-03T18:19:33.512Z,3.07
2023-04-03T18:22:14.770Z,3.06
2023-04-03T18:24:43.606Z,3.08
2023-04-03T18:27:14.506Z,3.00
2023-04-03T18:29:43.900Z,3.02
2023-04-03T18:32:13.988Z,3.03
2023-04-03T18:34:40.978Z,3.01
2023-04-03T18:37:07.736Z,2.95
2023-04-03T18:39:34.535Z,2.90
2023-04-03T18:42:07.633Z,2.87
2023-04-03T18:44:36.245Z,2.86
2023-04-03T18:47:03.039Z,2.83
2023-04-03T18:49:32.853Z,2.80
2023-04-03T18:51:59.765Z,2.80
2023-04-03T18:54:29.332Z,2.74
2023-04-03T18:56:56.093Z,2.67
2023-04-03T18:59:24.817Z,2.62
2023-04-03T19:01:52.005Z,2.54
2023-04-03T19:04:18.657Z,2.52
2023-04-03T19:06:45.687Z,2.49
2023-04-03T19:09:12.432Z,2.39
2023-04-03T19:11:39.070Z,2.34
2023-04-03T19:14:16.178Z,2.35
2023-04-03T19:16:43.834Z,2.24
2023-04-03T19:19:10.658Z,2.18
2023-04-03T19:21:41.133Z,2.14
2023-04-03T19:24:10.927Z,2.04
2023-04-03T19:26:37.615Z,2.01
2023-04-03T19:29:04.633Z,1.95
2023-04-03T19:31:33.703Z,1.88
2023-04-03T19:34:01.022Z,1.81
2023-04-03T19:36:27.625Z,1.72
2023-04-03T19:38:54.268Z,1.66
2023-04-03T19:41:23.114Z,1.63
2023-04-03T19:43:52.582Z,1.60
2023-04-03T19:46:22.391Z,1.58
2023-04-03T19:48:48.939Z,1.60
2023-04-03T19:51:23.140Z,1.58
2023-04-03T19:53:49.880Z,1.63
2023-04-03T19:56:17.040Z,1.67
2023-04-03T19:58:46.716Z,1.72
2023-04-03T20:01:13.272Z,1.78
2023-04-03T20:03:42.749Z,1.79
2023-04-03T20:06:09.365Z,1.85
2023-04-03T20:08:37.164Z,1.85
2023-04-03T20:11:03.919Z,1.82
2023-04-03T20:13:30.861Z,1.81
2023-04-03T20:15:58.413Z,1.80
2023-04-03T20:18:25.226Z,1.75
2023-04-03T20:21:00.345Z,1.70
2023-04-03T20:23:28.056Z,1.65
2023-04-03T20:26:08.801Z,1.57
2023-04-03T20:28:38.168Z,1.50
2023-04-03T20:31:06.272Z,1.39
2023-04-03T20:33:32.854Z,1.28
2023-04-03T20:35:59.566Z,1.18
2023-04-03T20:38:26.299Z,1.08
2023-04-03T20:40:52.978Z,1.01
2023-04-03T20:43:21.766Z,0.91
2023-04-03T20:45:49.320Z,0.82
2023-04-03T20:48:18.115Z,0.74
2023-04-03T20:50:45.956Z,0.65
2023-04-03T20:53:13.398Z,0.58
2023-04-03T20:55:40.227Z,0.48
2023-04-03T20:58:06.937Z,0.38
2023-04-03T21:00:33.619Z,0.29
2023-04-03T21:03:01.481Z,0.22
2023-04-03T21:05:30.333Z,0.13
2023-04-03T21:08:35.803Z,0.12
2023-04-03T21:11:40.502Z,0.09
2023-04-03T21:14:45.879Z,0.13
2023-04-03T21:17:12.481Z,0.17
2023-04-03T21:19:46.138Z,0.25
2023-04-03T21:22:13.856Z,0.27
2023-04-03T21:24:41.032Z,0.28
2023-04-03T21:27:08.264Z,0.26
2023-04-03T21:29:34.875Z,0.22
2023-04-03T21:32:01.964Z,0.19
2023-04-03T21:34:30.306Z,0.14
2023-04-03T21:37:01.450Z,0.13
2023-04-03T21:39:28.418Z,0.14
2023-04-03T21:41:55.122Z,0.09
2023-04-03T21:44:22.708Z,0.09
2023-04-03T21:46:54.353Z,0.00
2023-04-03T21:49:24.986Z,0.03
2023-04-03T21:51:52.408Z,0.00
2023-04-03T21:54:20.041Z,-0.03
2023-04-03T21:56:51.555Z,-0.06
2023-04-03T21:59:18.793Z,-0.04
2023-04-03T22:01:45.630Z,-0.02
2023-04-03T22:04:12.637Z,-0.10
2023-04-03T22:06:39.184Z,-0.14
2023-04-03T22:09:05.792Z,-0.22
2023-04-03T22:11:32.680Z,-0.24
2023-04-03T22:14:00.179Z,-0.29
2023-04-03T22:16:27.532Z,-0.34
2023-04-03T22:18:54.717Z,-0.38
2023-04-03T22:21:22.301Z,-0.43
2023-04-03T22:23:49.185Z,-0.49
2023-04-03T22:26:16.245Z,-0.54
2023-04-03T22:28:47.522Z,-0.51
2023-04-03T22:31:16.324Z,-0.58
2023-04-03T22:33:45.175Z,-0.59
2023-04-03T22:36:13.412Z,-0.65
2023-04-03T22:38:43.715Z,-0.68
2023-04-03T22:41:10.772Z,-0.72
2023-04-03T22:43:38.036Z,-0.77
2023-04-03T22:46:08.599Z,-0.83
2023-04-03T22:48:36.827Z,-0.84
2023-04-03T22:51:09.986Z,-0.92
2023-04-03T22:53:37.326Z,-0.92
2023-04-03T22:56:08.582Z,-0.99
2023-04-03T22:58:35.232Z,-1.03
2023-04-03T23:01:08.038Z,-1.05
2023-04-03T23:03:39.346Z,-1.11
2023-04-03T23:06:06.735Z,-1.15
2023-04-03T23:08:35.161Z,-1.16
2023-04-03T23:11:02.485Z,-1.21
2023-04-03T23:13:29.571Z,-1.26
2023-04-03T23:16:01.827Z,-1.27
2023-04-03T23:18:30.878Z,-1.32
2023-04-03T23:21:01.539Z,-1.37
2023-04-03T23:23:28.314Z,-1.38
2023-04-03T23:25:59.872Z,-1.41
2023-04-03T23:28:27.730Z,-1.42
2023-04-03T23:31:06.767Z,-1.44
2023-04-03T23:33:33.943Z,-1.43
2023-04-03T23:36:06.628Z,-1.46
2023-04-03T23:38:33.780Z,-1.53
2023-04-03T23:41:00.665Z,-1.58
2023-04-03T23:43:27.797Z,-1.64
2023-04-03T23:45:55.043Z,-1.69
2023-04-03T23:48:21.599Z,-1.71
2023-04-03T23:50:49.491Z,-1.76
2023-04-03T23:53:16.079Z,-1.78
2023-04-03T23:55:42.874Z,-1.82
2023-04-03T23:58:10.845Z,-1.85
